sensor_id;sensor_type;location;lat;lon;timestamp;P1;durP1;ratioP1;P2;durP2;ratioP2
81223;SDS011;70698;44.402;18.522;2023-08-31T00:02:11;7.15;;;4.55;;
81223;SDS011;70698;44.402;18.522;2023-08-31T00:04:36;6.15;;;5.07;;
81223;SDS011;70698;44.402;18.522;2023-08-31T00:07:02;7.53;;;4.95;;
81223;SDS011;70698;44.402;18.522;2023-08-31T00:09:28;7.28;;;4.97;;
81223;SDS011;70698;44.402;18.522;2023-08-31T00:14:25;7.78;;;4.53;;
81223;SDS011;70698;44.402;18.522;2023-08-31T00:16:51;6.13;;;3.80;;
81223;SDS011;70698;44.402;18.522;2023-08-31T00:19:17;4.45;;;3.78;;
81223;SDS011;70698;44.402;18.522;2023-08-31T00:21:43;4.78;;;4.00;;
81223;SDS011;70698;44.402;18.522;2023-08-31T00:24:08;6.70;;;3.63;;
81223;SDS011;70698;44.402;18.522;2023-08-31T00:26:35;5.97;;;3.95;;
81223;SDS011;70698;44.402;18.522;2023-08-31T00:29:10;4.75;;;4.13;;
81223;SDS011;70698;44.402;18.522;2023-08-31T00:31:37;5.03;;;4.05;;
81223;SDS011;70698;44.402;18.522;2023-08-31T00:34:05;9.13;;;4.35;;
81223;SDS011;70698;44.402;18.522;2023-08-31T00:36:31;6.20;;;3.97;;
81223;SDS011;70698;44.402;18.522;2023-08-31T00:39:02;5.97;;;3.53;;
81223;SDS011;70698;44.402;18.522;2023-08-31T00:41:31;8.77;;;3.50;;
81223;SDS011;70698;44.402;18.522;2023-08-31T00:43:57;6.40;;;3.20;;
81223;SDS011;70698;44.402;18.522;2023-08-31T00:46:24;6.75;;;3.55;;
81223;SDS011;70698;44.402;18.522;2023-08-31T00:48:49;7.57;;;4.03;;
81223;SDS011;70698;44.402;18.522;2023-08-31T00:51:15;8.77;;;4.15;;
81223;SDS011;70698;44.402;18.522;2023-08-31T00:53:42;5.15;;;4.10;;
81223;SDS011;70698;44.402;18.522;2023-08-31T00:56:08;6.22;;;4.03;;
81223;SDS011;70698;44.402;18.522;2023-08-31T00:58:34;7.55;;;4.45;;
81223;SDS011;70698;44.402;18.522;2023-08-31T01:09:22;9.15;;;3.78;;
81223;SDS011;70698;44.402;18.522;2023-08-31T01:14:54;9.82;;;3.65;;
81223;SDS011;70698;44.402;18.522;2023-08-31T01:17:24;7.03;;;4.00;;
81223;SDS011;70698;44.402;18.522;2023-08-31T01:19:55;8.05;;;3.60;;
81223;SDS011;70698;44.402;18.522;2023-08-31T01:24:59;6.68;;;3.33;;
81223;SDS011;70698;44.402;18.522;2023-08-31T01:27:29;6.75;;;3.58;;
81223;SDS011;70698;44.402;18.522;2023-08-31T01:29:57;6.97;;;3.47;;
81223;SDS011;70698;44.402;18.522;2023-08-31T01:32:23;7.20;;;3.88;;
81223;SDS011;70698;44.402;18.522;2023-08-31T01:34:49;6.05;;;3.88;;
81223;SDS011;70698;44.402;18.522;2023-08-31T01:37:19;5.75;;;3.75;;
81223;SDS011;70698;44.402;18.522;2023-08-31T01:40:08;5.28;;;4.40;;
81223;SDS011;70698;44.402;18.522;2023-08-31T01:42:40;5.82;;;3.65;;
81223;SDS011;70698;44.402;18.522;2023-08-31T01:45:08;7.97;;;4.60;;
81223;SDS011;70698;44.402;18.522;2023-08-31T01:47:36;5.00;;;3.85;;
81223;SDS011;70698;44.402;18.522;2023-08-31T01:50:02;7.95;;;3.95;;
81223;SDS011;70698;44.402;18.522;2023-08-31T01:52:28;6.55;;;3.90;;
81223;SDS011;70698;44.402;18.522;2023-08-31T01:54:55;10.52;;;4.28;;
81223;SDS011;70698;44.402;18.522;2023-08-31T01:57:20;8.18;;;3.75;;
81223;SDS011;70698;44.402;18.522;2023-08-31T02:00:03;9.98;;;3.72;;
81223;SDS011;70698;44.402;18.522;2023-08-31T02:02:39;6.93;;;3.55;;
81223;SDS011;70698;44.402;18.522;2023-08-31T02:05:09;7.05;;;3.88;;
81223;SDS011;70698;44.402;18.522;2023-08-31T02:07:35;7.75;;;3.75;;
81223;SDS011;70698;44.402;18.522;2023-08-31T02:10:01;10.68;;;4.30;;
81223;SDS011;70698;44.402;18.522;2023-08-31T02:12:27;6.93;;;4.65;;
81223;SDS011;70698;44.402;18.522;2023-08-31T02:14:53;4.53;;;3.92;;
81223;SDS011;70698;44.402;18.522;2023-08-31T02:17:19;5.68;;;3.83;;
81223;SDS011;70698;44.402;18.522;2023-08-31T02:19:44;8.93;;;3.97;;
81223;SDS011;70698;44.402;18.522;2023-08-31T02:22:10;7.78;;;3.55;;
81223;SDS011;70698;44.402;18.522;2023-08-31T02:24:36;4.88;;;3.67;;
81223;SDS011;70698;44.402;18.522;2023-08-31T02:27:02;6.22;;;4.13;;
81223;SDS011;70698;44.402;18.522;2023-08-31T02:29:28;7.57;;;3.92;;
81223;SDS011;70698;44.402;18.522;2023-08-31T02:31:54;6.97;;;3.58;;
81223;SDS011;70698;44.402;18.522;2023-08-31T02:34:22;5.70;;;3.83;;
81223;SDS011;70698;44.402;18.522;2023-08-31T02:36:48;4.43;;;3.30;;
81223;SDS011;70698;44.402;18.522;2023-08-31T02:39:14;5.40;;;3.63;;
81223;SDS011;70698;44.402;18.522;2023-08-31T02:41:41;5.55;;;3.70;;
81223;SDS011;70698;44.402;18.522;2023-08-31T02:44:07;7.78;;;3.58;;
81223;SDS011;70698;44.402;18.522;2023-08-31T02:46:32;8.23;;;3.63;;
81223;SDS011;70698;44.402;18.522;2023-08-31T02:49:01;6.25;;;3.10;;
81223;SDS011;70698;44.402;18.522;2023-08-31T02:51:27;5.53;;;3.47;;
81223;SDS011;70698;44.402;18.522;2023-08-31T02:53:53;6.70;;;3.40;;
81223;SDS011;70698;44.402;18.522;2023-08-31T02:56:19;7.32;;;3.40;;
81223;SDS011;70698;44.402;18.522;2023-08-31T02:58:45;10.00;;;3.70;;
81223;SDS011;70698;44.402;18.522;2023-08-31T03:01:11;4.90;;;2.90;;
81223;SDS011;70698;44.402;18.522;2023-08-31T03:03:41;5.63;;;3.22;;
81223;SDS011;70698;44.402;18.522;2023-08-31T03:06:08;10.60;;;3.60;;
81223;SDS011;70698;44.402;18.522;2023-08-31T03:08:37;7.88;;;3.63;;
81223;SDS011;70698;44.402;18.522;2023-08-31T03:11:04;5.30;;;3.75;;
81223;SDS011;70698;44.402;18.522;2023-08-31T03:13:30;6.35;;;3.60;;
81223;SDS011;70698;44.402;18.522;2023-08-31T03:15:58;5.90;;;3.60;;
81223;SDS011;70698;44.402;18.522;2023-08-31T03:18:24;8.63;;;3.55;;
81223;SDS011;70698;44.402;18.522;2023-08-31T03:20:50;5.80;;;3.00;;
81223;SDS011;70698;44.402;18.522;2023-08-31T03:23:16;5.38;;;2.88;;
81223;SDS011;70698;44.402;18.522;2023-08-31T03:25:42;4.10;;;2.85;;
81223;SDS011;70698;44.402;18.522;2023-08-31T03:28:08;9.30;;;3.33;;
81223;SDS011;70698;44.402;18.522;2023-08-31T03:30:35;6.78;;;3.28;;
81223;SDS011;70698;44.402;18.522;2023-08-31T03:33:01;7.78;;;3.30;;
81223;SDS011;70698;44.402;18.522;2023-08-31T03:35:27;5.30;;;2.97;;
81223;SDS011;70698;44.402;18.522;2023-08-31T03:37:55;5.90;;;3.40;;
81223;SDS011;70698;44.402;18.522;2023-08-31T03:40:21;6.35;;;2.67;;
81223;SDS011;70698;44.402;18.522;2023-08-31T03:42:49;5.90;;;3.15;;
81223;SDS011;70698;44.402;18.522;2023-08-31T03:45:15;10.52;;;3.15;;
81223;SDS011;70698;44.402;18.522;2023-08-31T03:47:41;6.85;;;3.13;;
81223;SDS011;70698;44.402;18.522;2023-08-31T03:50:06;6.13;;;3.00;;
81223;SDS011;70698;44.402;18.522;2023-08-31T03:52:33;5.97;;;2.92;;
81223;SDS011;70698;44.402;18.522;2023-08-31T03:54:59;7.65;;;3.15;;
81223;SDS011;70698;44.402;18.522;2023-08-31T03:57:24;6.55;;;3.20;;
81223;SDS011;70698;44.402;18.522;2023-08-31T03:59:53;4.25;;;2.90;;
81223;SDS011;70698;44.402;18.522;2023-08-31T04:02:18;8.32;;;3.30;;
81223;SDS011;70698;44.402;18.522;2023-08-31T04:04:44;4.57;;;3.40;;
81223;SDS011;70698;44.402;18.522;2023-08-31T04:07:09;5.03;;;3.55;;
81223;SDS011;70698;44.402;18.522;2023-08-31T04:09:35;6.07;;;3.60;;
81223;SDS011;70698;44.402;18.522;2023-08-31T04:12:01;6.03;;;3.45;;
81223;SDS011;70698;44.402;18.522;2023-08-31T04:14:30;8.38;;;3.30;;
81223;SDS011;70698;44.402;18.522;2023-08-31T04:16:55;6.32;;;3.25;;
81223;SDS011;70698;44.402;18.522;2023-08-31T04:19:21;6.18;;;3.42;;
81223;SDS011;70698;44.402;18.522;2023-08-31T04:21:47;5.50;;;3.17;;
81223;SDS011;70698;44.402;18.522;2023-08-31T04:24:13;6.22;;;3.00;;
81223;SDS011;70698;44.402;18.522;2023-08-31T04:26:39;7.03;;;3.05;;
81223;SDS011;70698;44.402;18.522;2023-08-31T04:29:04;6.70;;;2.40;;
81223;SDS011;70698;44.402;18.522;2023-08-31T04:31:32;7.13;;;3.20;;
81223;SDS011;70698;44.402;18.522;2023-08-31T04:33:58;8.27;;;3.65;;
81223;SDS011;70698;44.402;18.522;2023-08-31T04:36:24;9.02;;;3.47;;
81223;SDS011;70698;44.402;18.522;2023-08-31T04:38:51;6.75;;;3.50;;
81223;SDS011;70698;44.402;18.522;2023-08-31T04:41:16;9.02;;;3.88;;
81223;SDS011;70698;44.402;18.522;2023-08-31T04:43:42;5.72;;;3.67;;
81223;SDS011;70698;44.402;18.522;2023-08-31T04:46:08;6.60;;;3.55;;
81223;SDS011;70698;44.402;18.522;2023-08-31T04:48:33;12.30;;;4.97;;
81223;SDS011;70698;44.402;18.522;2023-08-31T04:50:59;9.32;;;5.35;;
81223;SDS011;70698;44.402;18.522;2023-08-31T04:53:24;13.65;;;5.13;;
81223;SDS011;70698;44.402;18.522;2023-08-31T04:55:50;8.70;;;5.00;;
81223;SDS011;70698;44.402;18.522;2023-08-31T04:58:16;19.20;;;15.57;;
81223;SDS011;70698;44.402;18.522;2023-08-31T05:00:42;10.75;;;7.30;;
81223;SDS011;70698;44.402;18.522;2023-08-31T05:03:09;10.43;;;7.22;;
81223;SDS011;70698;44.402;18.522;2023-08-31T05:05:35;7.00;;;4.50;;
81223;SDS011;70698;44.402;18.522;2023-08-31T05:08:01;4.72;;;3.95;;
81223;SDS011;70698;44.402;18.522;2023-08-31T05:10:28;6.30;;;4.30;;
81223;SDS011;70698;44.402;18.522;2023-08-31T05:12:53;5.75;;;3.55;;
81223;SDS011;70698;44.402;18.522;2023-08-31T05:15:19;7.63;;;4.05;;
81223;SDS011;70698;44.402;18.522;2023-08-31T05:17:44;4.47;;;2.63;;
81223;SDS011;70698;44.402;18.522;2023-08-31T05:20:10;5.35;;;3.55;;
81223;SDS011;70698;44.402;18.522;2023-08-31T05:22:36;3.08;;;2.60;;
81223;SDS011;70698;44.402;18.522;2023-08-31T05:25:01;5.35;;;2.90;;
81223;SDS011;70698;44.402;18.522;2023-08-31T05:27:27;6.85;;;3.17;;
81223;SDS011;70698;44.402;18.522;2023-08-31T05:29:53;7.50;;;3.00;;
81223;SDS011;70698;44.402;18.522;2023-08-31T05:32:18;5.22;;;3.40;;
81223;SDS011;70698;44.402;18.522;2023-08-31T05:34:44;5.55;;;3.10;;
81223;SDS011;70698;44.402;18.522;2023-08-31T05:37:09;4.78;;;3.08;;
81223;SDS011;70698;44.402;18.522;2023-08-31T05:39:35;7.38;;;3.60;;
81223;SDS011;70698;44.402;18.522;2023-08-31T05:42:01;8.73;;;5.03;;
81223;SDS011;70698;44.402;18.522;2023-08-31T05:44:26;6.22;;;3.67;;
81223;SDS011;70698;44.402;18.522;2023-08-31T05:46:52;5.28;;;4.10;;
81223;SDS011;70698;44.402;18.522;2023-08-31T05:49:18;12.48;;;4.75;;
81223;SDS011;70698;44.402;18.522;2023-08-31T05:51:43;7.82;;;4.25;;
81223;SDS011;70698;44.402;18.522;2023-08-31T05:54:09;5.88;;;3.75;;
81223;SDS011;70698;44.402;18.522;2023-08-31T05:56:40;6.70;;;4.18;;
81223;SDS011;70698;44.402;18.522;2023-08-31T05:59:06;7.45;;;4.35;;
81223;SDS011;70698;44.402;18.522;2023-08-31T06:01:33;13.88;;;5.72;;
81223;SDS011;70698;44.402;18.522;2023-08-31T06:04:00;18.05;;;6.22;;
81223;SDS011;70698;44.402;18.522;2023-08-31T06:06:25;8.85;;;5.25;;
81223;SDS011;70698;44.402;18.522;2023-08-31T06:08:52;11.40;;;5.43;;
81223;SDS011;70698;44.402;18.522;2023-08-31T06:11:19;52.40;;;31.92;;
81223;SDS011;70698;44.402;18.522;2023-08-31T06:13:45;14.32;;;5.38;;
81223;SDS011;70698;44.402;18.522;2023-08-31T06:16:10;8.63;;;5.82;;
81223;SDS011;70698;44.402;18.522;2023-08-31T06:18:36;13.30;;;5.70;;
81223;SDS011;70698;44.402;18.522;2023-08-31T06:21:01;6.82;;;3.97;;
81223;SDS011;70698;44.402;18.522;2023-08-31T06:23:27;7.75;;;4.03;;
81223;SDS011;70698;44.402;18.522;2023-08-31T06:25:53;8.35;;;5.10;;
81223;SDS011;70698;44.402;18.522;2023-08-31T06:28:18;13.18;;;5.72;;
81223;SDS011;70698;44.402;18.522;2023-08-31T06:30:44;13.43;;;5.95;;
81223;SDS011;70698;44.402;18.522;2023-08-31T06:33:13;10.73;;;5.38;;
81223;SDS011;70698;44.402;18.522;2023-08-31T06:35:45;9.20;;;5.20;;
81223;SDS011;70698;44.402;18.522;2023-08-31T06:38:13;9.85;;;5.45;;
81223;SDS011;70698;44.402;18.522;2023-08-31T06:40:39;8.20;;;4.78;;
81223;SDS011;70698;44.402;18.522;2023-08-31T06:43:06;12.43;;;4.50;;
81223;SDS011;70698;44.402;18.522;2023-08-31T06:45:32;9.18;;;4.00;;
81223;SDS011;70698;44.402;18.522;2023-08-31T06:47:57;6.22;;;3.55;;
81223;SDS011;70698;44.402;18.522;2023-08-31T06:50:23;5.57;;;3.40;;
81223;SDS011;70698;44.402;18.522;2023-08-31T06:52:48;7.90;;;4.00;;
81223;SDS011;70698;44.402;18.522;2023-08-31T06:55:14;7.75;;;4.00;;
81223;SDS011;70698;44.402;18.522;2023-08-31T06:57:40;5.63;;;3.47;;
81223;SDS011;70698;44.402;18.522;2023-08-31T07:00:07;4.90;;;3.38;;
81223;SDS011;70698;44.402;18.522;2023-08-31T07:02:33;6.85;;;3.40;;
81223;SDS011;70698;44.402;18.522;2023-08-31T07:05:00;6.40;;;3.50;;
81223;SDS011;70698;44.402;18.522;2023-08-31T07:07:25;8.38;;;3.70;;
81223;SDS011;70698;44.402;18.522;2023-08-31T07:09:51;5.72;;;3.67;;
81223;SDS011;70698;44.402;18.522;2023-08-31T07:12:16;6.13;;;3.00;;
81223;SDS011;70698;44.402;18.522;2023-08-31T07:14:42;5.45;;;3.05;;
81223;SDS011;70698;44.402;18.522;2023-08-31T07:17:09;10.10;;;4.57;;
81223;SDS011;70698;44.402;18.522;2023-08-31T07:19:37;7.80;;;3.83;;
81223;SDS011;70698;44.402;18.522;2023-08-31T07:22:03;7.18;;;3.35;;
81223;SDS011;70698;44.402;18.522;2023-08-31T07:24:29;6.35;;;3.72;;
81223;SDS011;70698;44.402;18.522;2023-08-31T07:26:55;6.35;;;4.15;;
81223;SDS011;70698;44.402;18.522;2023-08-31T07:29:20;8.07;;;4.40;;
81223;SDS011;70698;44.402;18.522;2023-08-31T07:31:46;7.30;;;4.30;;
81223;SDS011;70698;44.402;18.522;2023-08-31T07:34:12;7.90;;;4.30;;
81223;SDS011;70698;44.402;18.522;2023-08-31T07:36:38;7.28;;;4.10;;
81223;SDS011;70698;44.402;18.522;2023-08-31T07:39:04;7.35;;;4.40;;
81223;SDS011;70698;44.402;18.522;2023-08-31T07:41:30;8.77;;;4.35;;
81223;SDS011;70698;44.402;18.522;2023-08-31T07:43:56;10.13;;;4.05;;
81223;SDS011;70698;44.402;18.522;2023-08-31T07:46:21;4.85;;;3.40;;
81223;SDS011;70698;44.402;18.522;2023-08-31T07:48:47;6.55;;;3.60;;
81223;SDS011;70698;44.402;18.522;2023-08-31T07:51:14;7.68;;;3.33;;
81223;SDS011;70698;44.402;18.522;2023-08-31T07:53:39;7.78;;;3.50;;
81223;SDS011;70698;44.402;18.522;2023-08-31T07:56:08;7.72;;;3.58;;
81223;SDS011;70698;44.402;18.522;2023-08-31T07:58:33;6.28;;;3.58;;
81223;SDS011;70698;44.402;18.522;2023-08-31T08:00:59;9.05;;;4.72;;
81223;SDS011;70698;44.402;18.522;2023-08-31T08:03:24;6.57;;;3.50;;
81223;SDS011;70698;44.402;18.522;2023-08-31T08:05:51;8.02;;;3.90;;
81223;SDS011;70698;44.402;18.522;2023-08-31T08:08:16;5.45;;;3.65;;
81223;SDS011;70698;44.402;18.522;2023-08-31T08:10:42;6.88;;;3.72;;
81223;SDS011;70698;44.402;18.522;2023-08-31T08:13:08;6.60;;;3.92;;
81223;SDS011;70698;44.402;18.522;2023-08-31T08:15:34;8.82;;;3.72;;
81223;SDS011;70698;44.402;18.522;2023-08-31T08:18:00;9.18;;;3.95;;
81223;SDS011;70698;44.402;18.522;2023-08-31T08:20:26;8.10;;;3.65;;
81223;SDS011;70698;44.402;18.522;2023-08-31T08:22:53;11.80;;;4.25;;
81223;SDS011;70698;44.402;18.522;2023-08-31T08:25:19;7.35;;;3.97;;
81223;SDS011;70698;44.402;18.522;2023-08-31T08:27:45;7.50;;;4.00;;
81223;SDS011;70698;44.402;18.522;2023-08-31T08:30:11;7.82;;;3.70;;
81223;SDS011;70698;44.402;18.522;2023-08-31T08:32:37;7.70;;;3.90;;
81223;SDS011;70698;44.402;18.522;2023-08-31T08:35:03;6.03;;;3.85;;
81223;SDS011;70698;44.402;18.522;2023-08-31T08:37:29;5.80;;;3.80;;
81223;SDS011;70698;44.402;18.522;2023-08-31T08:39:57;5.20;;;3.60;;
81223;SDS011;70698;44.402;18.522;2023-08-31T08:42:23;5.60;;;3.20;;
81223;SDS011;70698;44.402;18.522;2023-08-31T08:44:50;5.13;;;3.28;;
81223;SDS011;70698;44.402;18.522;2023-08-31T08:47:16;5.90;;;2.70;;
81223;SDS011;70698;44.402;18.522;2023-08-31T08:49:42;3.80;;;2.45;;
81223;SDS011;70698;44.402;18.522;2023-08-31T08:52:09;3.72;;;2.58;;
81223;SDS011;70698;44.402;18.522;2023-08-31T08:54:35;4.50;;;2.90;;
81223;SDS011;70698;44.402;18.522;2023-08-31T08:57:01;4.55;;;2.80;;
81223;SDS011;70698;44.402;18.522;2023-08-31T08:59:29;7.45;;;3.60;;
81223;SDS011;70698;44.402;18.522;2023-08-31T09:01:56;3.90;;;2.40;;
81223;SDS011;70698;44.402;18.522;2023-08-31T09:04:22;4.72;;;2.38;;
81223;SDS011;70698;44.402;18.522;2023-08-31T09:06:47;4.47;;;2.40;;
81223;SDS011;70698;44.402;18.522;2023-08-31T09:09:13;4.45;;;2.35;;
81223;SDS011;70698;44.402;18.522;2023-08-31T09:11:38;5.40;;;2.30;;
81223;SDS011;70698;44.402;18.522;2023-08-31T09:14:22;4.63;;;2.20;;
81223;SDS011;70698;44.402;18.522;2023-08-31T09:16:48;5.30;;;2.90;;
81223;SDS011;70698;44.402;18.522;2023-08-31T09:19:22;6.18;;;3.72;;
81223;SDS011;70698;44.402;18.522;2023-08-31T09:21:50;4.95;;;3.00;;
81223;SDS011;70698;44.402;18.522;2023-08-31T09:24:16;4.82;;;3.50;;
81223;SDS011;70698;44.402;18.522;2023-08-31T09:26:56;5.03;;;3.08;;
81223;SDS011;70698;44.402;18.522;2023-08-31T09:29:23;6.70;;;3.70;;
81223;SDS011;70698;44.402;18.522;2023-08-31T09:31:49;6.47;;;3.53;;
81223;SDS011;70698;44.402;18.522;2023-08-31T09:34:15;4.88;;;3.30;;
81223;SDS011;70698;44.402;18.522;2023-08-31T09:36:42;7.65;;;3.25;;
81223;SDS011;70698;44.402;18.522;2023-08-31T09:39:08;3.53;;;3.22;;
81223;SDS011;70698;44.402;18.522;2023-08-31T09:41:35;5.65;;;3.40;;
81223;SDS011;70698;44.402;18.522;2023-08-31T09:44:18;12.45;;;4.25;;
81223;SDS011;70698;44.402;18.522;2023-08-31T09:46:45;5.25;;;3.45;;
81223;SDS011;70698;44.402;18.522;2023-08-31T09:49:12;7.70;;;4.82;;
81223;SDS011;70698;44.402;18.522;2023-08-31T09:51:41;5.53;;;4.30;;
81223;SDS011;70698;44.402;18.522;2023-08-31T09:54:12;5.10;;;4.30;;
81223;SDS011;70698;44.402;18.522;2023-08-31T09:56:39;9.30;;;4.07;;
81223;SDS011;70698;44.402;18.522;2023-08-31T10:01:33;8.38;;;4.60;;
81223;SDS011;70698;44.402;18.522;2023-08-31T10:03:59;7.75;;;3.70;;
81223;SDS011;70698;44.402;18.522;2023-08-31T10:06:26;5.00;;;3.63;;
81223;SDS011;70698;44.402;18.522;2023-08-31T10:08:53;8.33;;;3.80;;
81223;SDS011;70698;44.402;18.522;2023-08-31T10:11:20;5.93;;;3.70;;
81223;SDS011;70698;44.402;18.522;2023-08-31T10:13:47;9.77;;;3.63;;
81223;SDS011;70698;44.402;18.522;2023-08-31T10:16:14;7.13;;;3.63;;
81223;SDS011;70698;44.402;18.522;2023-08-31T10:18:40;7.43;;;4.97;;
81223;SDS011;70698;44.402;18.522;2023-08-31T10:21:06;8.98;;;5.25;;
81223;SDS011;70698;44.402;18.522;2023-08-31T10:23:32;7.75;;;6.50;;
81223;SDS011;70698;44.402;18.522;2023-08-31T10:28:24;17.50;;;15.48;;
81223;SDS011;70698;44.402;18.522;2023-08-31T10:31:07;9.35;;;6.72;;
81223;SDS011;70698;44.402;18.522;2023-08-31T10:33:35;7.95;;;4.47;;
81223;SDS011;70698;44.402;18.522;2023-08-31T10:38:41;8.15;;;4.43;;
81223;SDS011;70698;44.402;18.522;2023-08-31T10:46:35;6.72;;;3.70;;
81223;SDS011;70698;44.402;18.522;2023-08-31T10:51:39;5.32;;;3.72;;
81223;SDS011;70698;44.402;18.522;2023-08-31T10:54:11;5.38;;;3.45;;
81223;SDS011;70698;44.402;18.522;2023-08-31T10:59:26;5.03;;;3.20;;
81223;SDS011;70698;44.402;18.522;2023-08-31T11:02:06;6.47;;;3.53;;
81223;SDS011;70698;44.402;18.522;2023-08-31T11:04:51;4.93;;;3.53;;
81223;SDS011;70698;44.402;18.522;2023-08-31T11:07:19;9.00;;;3.83;;
81223;SDS011;70698;44.402;18.522;2023-08-31T11:09:48;5.22;;;3.17;;
81223;SDS011;70698;44.402;18.522;2023-08-31T11:12:14;6.15;;;4.32;;
81223;SDS011;70698;44.402;18.522;2023-08-31T11:14:40;7.32;;;4.95;;
81223;SDS011;70698;44.402;18.522;2023-08-31T11:17:06;7.00;;;3.53;;
81223;SDS011;70698;44.402;18.522;2023-08-31T11:19:32;7.10;;;1.83;;
81223;SDS011;70698;44.402;18.522;2023-08-31T11:22:02;4.78;;;2.45;;
81223;SDS011;70698;44.402;18.522;2023-08-31T11:24:29;5.55;;;2.83;;
81223;SDS011;70698;44.402;18.522;2023-08-31T11:26:56;5.50;;;3.30;;
81223;SDS011;70698;44.402;18.522;2023-08-31T11:29:21;4.10;;;2.97;;
81223;SDS011;70698;44.402;18.522;2023-08-31T11:31:47;5.90;;;3.17;;
81223;SDS011;70698;44.402;18.522;2023-08-31T11:34:14;4.53;;;2.90;;
81223;SDS011;70698;44.402;18.522;2023-08-31T11:36:43;5.65;;;2.88;;
81223;SDS011;70698;44.402;18.522;2023-08-31T11:39:11;4.78;;;3.00;;
81223;SDS011;70698;44.402;18.522;2023-08-31T11:41:37;4.68;;;3.13;;
81223;SDS011;70698;44.402;18.522;2023-08-31T11:44:10;3.65;;;2.80;;
81223;SDS011;70698;44.402;18.522;2023-08-31T11:46:38;6.20;;;3.00;;
81223;SDS011;70698;44.402;18.522;2023-08-31T11:49:05;6.72;;;4.45;;
81223;SDS011;70698;44.402;18.522;2023-08-31T11:51:32;4.18;;;3.28;;
81223;SDS011;70698;44.402;18.522;2023-08-31T11:54:00;4.55;;;2.92;;
81223;SDS011;70698;44.402;18.522;2023-08-31T11:56:28;5.75;;;2.72;;
81223;SDS011;70698;44.402;18.522;2023-08-31T11:59:07;7.55;;;3.90;;
81223;SDS011;70698;44.402;18.522;2023-08-31T12:01:37;22.17;;;8.00;;
81223;SDS011;70698;44.402;18.522;2023-08-31T12:04:09;25.35;;;8.95;;
81223;SDS011;70698;44.402;18.522;2023-08-31T12:06:35;19.95;;;7.50;;
81223;SDS011;70698;44.402;18.522;2023-08-31T12:09:01;23.70;;;8.93;;
81223;SDS011;70698;44.402;18.522;2023-08-31T12:11:29;23.88;;;7.90;;
81223;SDS011;70698;44.402;18.522;2023-08-31T12:13:57;26.60;;;8.23;;
81223;SDS011;70698;44.402;18.522;2023-08-31T12:16:25;19.20;;;8.20;;
81223;SDS011;70698;44.402;18.522;2023-08-31T12:18:58;21.85;;;7.40;;
81223;SDS011;70698;44.402;18.522;2023-08-31T12:21:25;18.90;;;7.28;;
81223;SDS011;70698;44.402;18.522;2023-08-31T12:23:50;18.33;;;7.55;;
81223;SDS011;70698;44.402;18.522;2023-08-31T12:26:16;15.68;;;6.57;;
81223;SDS011;70698;44.402;18.522;2023-08-31T12:28:41;12.55;;;5.35;;
81223;SDS011;70698;44.402;18.522;2023-08-31T12:31:07;12.10;;;5.00;;
81223;SDS011;70698;44.402;18.522;2023-08-31T12:33:33;12.32;;;4.85;;
81223;SDS011;70698;44.402;18.522;2023-08-31T12:35:59;13.43;;;4.97;;
81223;SDS011;70698;44.402;18.522;2023-08-31T12:38:25;9.05;;;4.90;;
81223;SDS011;70698;44.402;18.522;2023-08-31T12:40:51;8.20;;;4.50;;
81223;SDS011;70698;44.402;18.522;2023-08-31T12:43:17;10.55;;;5.00;;
81223;SDS011;70698;44.402;18.522;2023-08-31T12:45:42;11.70;;;5.20;;
81223;SDS011;70698;44.402;18.522;2023-08-31T12:48:08;11.32;;;5.22;;
81223;SDS011;70698;44.402;18.522;2023-08-31T12:50:33;12.80;;;5.28;;
81223;SDS011;70698;44.402;18.522;2023-08-31T12:52:59;14.02;;;4.47;;
81223;SDS011;70698;44.402;18.522;2023-08-31T12:55:25;8.93;;;4.20;;
81223;SDS011;70698;44.402;18.522;2023-08-31T12:57:50;7.65;;;4.80;;
81223;SDS011;70698;44.402;18.522;2023-08-31T13:00:16;9.65;;;4.53;;
81223;SDS011;70698;44.402;18.522;2023-08-31T13:02:42;8.80;;;4.57;;
81223;SDS011;70698;44.402;18.522;2023-08-31T13:05:10;9.13;;;4.25;;
81223;SDS011;70698;44.402;18.522;2023-08-31T13:07:36;10.95;;;4.63;;
81223;SDS011;70698;44.402;18.522;2023-08-31T13:10:03;12.40;;;5.88;;
81223;SDS011;70698;44.402;18.522;2023-08-31T13:12:30;15.45;;;5.38;;
81223;SDS011;70698;44.402;18.522;2023-08-31T13:14:59;12.30;;;5.20;;
81223;SDS011;70698;44.402;18.522;2023-08-31T13:17:26;12.18;;;5.25;;
81223;SDS011;70698;44.402;18.522;2023-08-31T13:19:53;5.70;;;3.72;;
81223;SDS011;70698;44.402;18.522;2023-08-31T13:22:19;7.13;;;3.92;;
81223;SDS011;70698;44.402;18.522;2023-08-31T13:24:45;6.15;;;3.58;;
81223;SDS011;70698;44.402;18.522;2023-08-31T13:27:10;4.03;;;3.13;;
81223;SDS011;70698;44.402;18.522;2023-08-31T13:29:36;5.70;;;3.22;;
81223;SDS011;70698;44.402;18.522;2023-08-31T13:32:02;6.38;;;3.67;;
81223;SDS011;70698;44.402;18.522;2023-08-31T13:34:28;5.35;;;4.10;;
81223;SDS011;70698;44.402;18.522;2023-08-31T13:36:54;7.40;;;4.40;;
81223;SDS011;70698;44.402;18.522;2023-08-31T13:39:20;7.07;;;4.45;;
81223;SDS011;70698;44.402;18.522;2023-08-31T13:41:45;8.05;;;4.80;;
81223;SDS011;70698;44.402;18.522;2023-08-31T13:44:11;11.43;;;5.18;;
81223;SDS011;70698;44.402;18.522;2023-08-31T13:46:36;6.82;;;5.28;;
81223;SDS011;70698;44.402;18.522;2023-08-31T13:49:02;7.40;;;5.55;;
81223;SDS011;70698;44.402;18.522;2023-08-31T13:51:28;7.05;;;5.45;;
81223;SDS011;70698;44.402;18.522;2023-08-31T13:53:53;6.47;;;4.95;;
81223;SDS011;70698;44.402;18.522;2023-08-31T13:56:19;7.30;;;4.95;;
81223;SDS011;70698;44.402;18.522;2023-08-31T13:58:45;6.97;;;5.30;;
81223;SDS011;70698;44.402;18.522;2023-08-31T14:01:11;9.40;;;6.75;;
81223;SDS011;70698;44.402;18.522;2023-08-31T14:03:38;8.88;;;6.90;;
81223;SDS011;70698;44.402;18.522;2023-08-31T14:06:04;10.23;;;6.45;;
81223;SDS011;70698;44.402;18.522;2023-08-31T14:08:29;10.60;;;7.05;;
81223;SDS011;70698;44.402;18.522;2023-08-31T14:10:55;11.93;;;9.43;;
81223;SDS011;70698;44.402;18.522;2023-08-31T14:13:21;11.20;;;9.80;;
81223;SDS011;70698;44.402;18.522;2023-08-31T14:15:47;13.00;;;10.07;;
81223;SDS011;70698;44.402;18.522;2023-08-31T14:18:13;12.00;;;9.85;;
81223;SDS011;70698;44.402;18.522;2023-08-31T14:20:39;12.65;;;11.45;;
81223;SDS011;70698;44.402;18.522;2023-08-31T14:23:05;13.30;;;11.85;;
81223;SDS011;70698;44.402;18.522;2023-08-31T14:25:35;14.45;;;12.00;;
81223;SDS011;70698;44.402;18.522;2023-08-31T14:28:01;24.80;;;19.15;;
81223;SDS011;70698;44.402;18.522;2023-08-31T14:30:28;18.45;;;14.93;;
81223;SDS011;70698;44.402;18.522;2023-08-31T14:32:53;16.58;;;14.43;;
81223;SDS011;70698;44.402;18.522;2023-08-31T14:35:19;17.17;;;14.80;;
81223;SDS011;70698;44.402;18.522;2023-08-31T14:37:45;18.38;;;15.60;;
81223;SDS011;70698;44.402;18.522;2023-08-31T14:40:11;17.38;;;15.50;;
81223;SDS011;70698;44.402;18.522;2023-08-31T14:42:37;17.90;;;15.77;;
81223;SDS011;70698;44.402;18.522;2023-08-31T14:45:02;18.77;;;15.82;;
81223;SDS011;70698;44.402;18.522;2023-08-31T14:47:28;21.38;;;15.73;;
81223;SDS011;70698;44.402;18.522;2023-08-31T14:49:57;22.00;;;16.17;;
81223;SDS011;70698;44.402;18.522;2023-08-31T14:52:22;17.45;;;15.38;;
81223;SDS011;70698;44.402;18.522;2023-08-31T14:54:48;17.92;;;15.50;;
81223;SDS011;70698;44.402;18.522;2023-08-31T14:57:14;17.42;;;14.52;;
81223;SDS011;70698;44.402;18.522;2023-08-31T14:59:39;16.00;;;12.93;;
81223;SDS011;70698;44.402;18.522;2023-08-31T15:02:06;19.25;;;14.15;;
81223;SDS011;70698;44.402;18.522;2023-08-31T15:04:32;17.80;;;14.15;;